Time;durP1;ratioP1;P1;durP2;ratioP2;P2;SDS_P1;SDS_P2;PMS_P1;PMS_P2;Temp;Humidity;BMP_temperature;BMP_pressure;BME280_temperature;BME280_humidity;BME280_pressure;Samples;Min_cycle;Max_cycle;Signal;HPM_P1;HPM_P2
2022/10/06 00:01:12;;;;;;;15.52;9.38;;;;;;;;;;4990118;28;20590;-70
2022/10/06 00:03:38;;;;;;;16.15;9.95;;;;;;;;;;4989919;28;20117;-69
2022/10/06 00:06:04;;;;;;;19.05;10.90;;;;;;;;;;4988568;28;20555;-69
2022/10/06 00:08:30;;;;;;;16.52;9.70;;;;;;;;;;4990130;28;20050;-69
2022/10/06 00:10:55;;;;;;;15.95;9.52;;;;;;;;;;4989773;28;20042;-70
2022/10/06 00:13:21;;;;;;;14.93;9.93;;;;;;;;;;4990711;28;20427;-69
2022/10/06 00:15:46;;;;;;;15.45;9.48;;;;;;;;;;4990367;28;20514;-69
2022/10/06 00:18:12;;;;;;;19.33;9.50;;;;;;;;;;4989430;28;20416;-69
2022/10/06 00:20:37;;;;;;;15.77;9.83;;;;;;;;;;4991461;28;20396;-69
2022/10/06 00:23:02;;;;;;;16.57;9.87;;;;;;;;;;4990074;28;20475;-69
2022/10/06 00:25:27;;;;;;;16.70;9.47;;;;;;;;;;4990762;28;20783;-71
2022/10/06 00:27:53;;;;;;;19.48;9.65;;;;;;;;;;4990400;28;20165;-69
2022/10/06 00:30:23;;;;;;;15.32;9.27;;;;;;;;;;4987106;28;20411;-68
2022/10/06 00:32:49;;;;;;;15.25;9.77;;;;;;;;;;4990105;28;20058;-69
2022/10/06 00:35:14;;;;;;;15.00;9.45;;;;;;;;;;4990993;28;20030;-69
2022/10/06 00:37:40;;;;;;;15.33;9.07;;;;;;;;;;4986742;28;20028;-70
2022/10/06 00:40:08;;;;;;;20.67;9.50;;;;;;;;;;4988589;28;20291;-70
2022/10/06 00:42:46;;;;;;;18.25;8.75;;;;;;;;;;5004557;28;20280;-70
2022/10/06 00:45:11;;;;;;;18.42;9.73;;;;;;;;;;4989567;28;20113;-70
2022/10/06 00:47:37;;;;;;;15.90;9.70;;;;;;;;;;4988555;28;20129;-70
2022/10/06 00:50:02;;;;;;;17.93;10.33;;;;;;;;;;4990054;28;20769;-70
2022/10/06 00:52:29;;;;;;;15.25;9.52;;;;;;;;;;4990399;28;20480;-70
2022/10/06 00:54:57;;;;;;;15.10;8.77;;;;;;;;;;4987735;28;20036;-70
2022/10/06 00:57:22;;;;;;;16.65;9.40;;;;;;;;;;4987091;28;20125;-70
2022/10/06 00:59:48;;;;;;;16.50;9.63;;;;;;;7.79;nan;101764.59;4987462;28;20591;-70
2022/10/06 01:02:19;;;;;;;14.18;8.45;;;;;;;;;;4988475;28;20042;-70
2022/10/06 01:04:45;;;;;;;14.73;8.95;;;;;;;;;;4990585;28;20129;-70
2022/10/06 01:07:11;;;;;;;17.40;9.07;;;;;;;;;;4989936;28;20034;-69
2022/10/06 01:09:36;;;;;;;15.63;8.60;;;;;;;;;;4990450;28;20030;-70
2022/10/06 01:12:04;;;;;;;12.98;8.15;;;;;;;;;;4987351;28;20285;-69
2022/10/06 01:14:30;;;;;;;14.27;8.15;;;;;;;;;;4996956;28;20848;-68
2022/10/06 01:16:58;;;;;;;14.32;7.63;;;;;;;;;;4985270;28;20023;-70
2022/10/06 01:19:45;;;;;;;12.15;7.80;;;;;;;;;;4986812;28;20026;-69
2022/10/06 01:22:13;;;;;;;13.15;8.75;;;;;;;;;;4986873;28;20034;-70
2022/10/06 01:24:38;;;;;;;15.13;7.95;;;;;;;;;;4988089;28;20052;-70
2022/10/06 01:27:04;;;;;;;17.25;8.38;;;;;;;;;;4988872;28;20023;-70
2022/10/06 01:29:33;;;;;;;14.85;8.13;;;;;;;;;;4984079;28;20044;-69
2022/10/06 01:31:59;;;;;;;16.13;8.90;;;;;;;;;;5001783;28;20026;-70
2022/10/06 01:34:24;;;;;;;14.35;8.52;;;;;;;;;;4987659;28;20444;-70
2022/10/06 01:36:50;;;;;;;19.30;8.48;;;;;;;;;;4990441;28;20058;-70
2022/10/06 01:39:15;;;;;;;17.57;8.90;;;;;;;;;;4984453;28;20030;-70
2022/10/06 01:41:40;;;;;;;12.30;7.17;;;;;;;;;;4989006;28;20280;-70
2022/10/06 01:44:05;;;;;;;12.17;7.07;;;;;;;;;;4988525;28;20291;-69
2022/10/06 01:46:30;;;;;;;12.77;7.80;;;;;;;;;;4988939;28;20030;-69
2022/10/06 01:48:56;;;;;;;10.87;6.90;;;;;;;;;;4988553;28;20308;-69
2022/10/06 01:51:21;;;;;;;11.80;6.97;;;;;;;;;;4989671;28;20338;-69
2022/10/06 01:53:46;;;;;;;11.57;7.00;;;;;;;;;;4989879;28;20080;-68
2022/10/06 01:56:12;;;;;;;13.00;7.70;;;;;;;;;;4988126;28;20113;-70
2022/10/06 01:58:37;;;;;;;12.70;7.20;;;;;;;;;;4989067;28;20287;-69
2022/10/06 02:01:05;;;;;;;10.73;6.65;;;;;;;;;;5004112;28;20026;-71
2022/10/06 02:03:32;;;;;;;10.68;6.38;;;;;;;;;;4989782;28;20117;-69
2022/10/06 02:05:57;;;;;;;9.68;6.30;;;;;;;;;;4987044;28;20038;-68
2022/10/06 02:08:22;;;;;;;8.73;6.10;;;;;;;;;;4984677;28;20438;-69
2022/10/06 02:10:47;;;;;;;10.40;6.27;;;;;;;;;;4989583;28;20030;-69
2022/10/06 02:13:13;;;;;;;13.43;6.57;;;;;;;;;;4984194;28;20287;-69
2022/10/06 02:15:38;;;;;;;11.10;6.47;;;;;;;;;;4986595;28;20046;-69
2022/10/06 02:18:03;;;;;;;11.82;6.30;;;;;;;;;;4987760;28;20026;-69
2022/10/06 02:20:29;;;;;;;11.83;6.10;;;;;;;;;;4984639;28;20118;-68
2022/10/06 02:22:54;;;;;;;8.85;5.35;;;;;;;;;;4988484;28;20034;-68
2022/10/06 02:25:19;;;;;;;8.97;5.33;;;;;;;7.22;nan;101730.78;4986246;28;20038;-69
2022/10/06 02:27:44;;;;;;;8.82;5.00;;;;;;;;;;4989923;28;20276;-68
2022/10/06 02:30:10;;;;;;;10.47;5.00;;;;;;;;;;4990444;28;20019;-70
2022/10/06 02:32:37;;;;;;;10.30;4.90;;;;;;;;;;4992748;28;20122;-69
2022/10/06 02:35:03;;;;;;;8.20;4.90;;;;;;;;;;4989810;28;20022;-69
2022/10/06 02:37:29;;;;;;;6.68;4.57;;;;;;;;;;4992411;28;20037;-68
2022/10/06 02:39:54;;;;;;;8.55;4.88;;;;;;;;;;5004405;28;20032;-69
2022/10/06 02:42:19;;;;;;;6.90;4.40;;;;;;;;;;4991901;28;20026;-68
2022/10/06 02:44:45;;;;;;;7.60;5.20;;;;;;;;;;4991597;28;20271;-69
2022/10/06 02:47:13;;;;;;;8.65;4.75;;;;;;;;;;4993269;28;20025;-69
2022/10/06 02:49:38;;;;;;;7.35;4.47;;;;;;;;;;4990481;28;20042;-68
2022/10/06 02:52:04;;;;;;;8.57;4.55;;;;;;;;;;4993133;28;20042;-68
2022/10/06 02:54:29;;;;;;;7.03;4.80;;;;;;;;;;4992557;28;20448;-69
2022/10/06 02:56:54;;;;;;;10.87;4.90;;;;;;;;;;4991287;28;20536;-68
2022/10/06 02:59:19;;;;;;;8.63;3.97;;;;;;;;;;4988353;28;20283;-70
2022/10/06 03:01:45;;;;;;;7.05;4.13;;;;;;;;;;4990936;28;20077;-70
2022/10/06 03:04:10;;;;;;;10.23;4.37;;;;;;;;;;4989693;28;20068;-69
2022/10/06 03:06:36;;;;;;;12.95;4.72;;;;;;;;;;4991795;28;20284;-68
2022/10/06 03:09:03;;;;;;;8.05;5.28;;;;;;;;;;4992400;28;20031;-68
2022/10/06 03:11:30;;;;;;;7.97;4.50;;;;;;;;;;4991284;28;20043;-68
2022/10/06 03:13:56;;;;;;;11.90;4.95;;;;;;;;;;4990447;28;20049;-69
2022/10/06 03:16:40;;;;;;;12.75;4.65;;;;;;;;;;4989900;28;20026;-68
2022/10/06 03:19:06;;;;;;;12.43;4.93;;;;;;;;;;4997997;28;20484;-68
2022/10/06 03:21:32;;;;;;;12.38;5.07;;;;;;;;;;4989892;28;20057;-69
2022/10/06 03:23:58;;;;;;;10.80;4.85;;;;;;;;;;4992160;28;20041;-70
2022/10/06 03:26:26;;;;;;;13.55;5.10;;;;;;;;;;4991702;28;20030;-70
2022/10/06 03:28:52;;;;;;;14.07;5.03;;;;;;;;;;4990542;28;20440;-70
2022/10/06 03:31:17;;;;;;;7.85;4.85;;;;;;;;;;4988069;28;20030;-69
2022/10/06 03:33:42;;;;;;;9.55;5.20;;;;;;;;;;4991647;28;20029;-70
2022/10/06 03:36:12;;;;;;;10.60;5.30;;;;;;;;;;4991218;28;20117;-69
2022/10/06 03:38:37;;;;;;;;;;;;;;;;;;4989810;28;20287;-69
2022/10/06 03:41:03;;;;;;;8.65;4.65;;;;;;;;;;4987966;28;19917;-69
2022/10/06 03:43:29;;;;;;;7.53;5.18;;;;;;;;;;4991310;28;20499;-70
2022/10/06 03:45:58;;;;;;;10.77;5.33;;;;;;;;;;4992249;28;20026;-70
2022/10/06 03:48:23;;;;;;;14.15;5.70;;;;;;;;;;4991203;28;20296;-69
2022/10/06 03:50:59;;;;;;;11.13;5.18;;;;;;;;;;4987992;28;20026;-70
2022/10/06 03:53:26;;;;;;;13.05;5.80;;;;;;;;;;4990188;28;20036;-70
2022/10/06 03:56:01;;;;;;;11.68;5.45;;;;;;;;;;5006476;28;20037;-70
2022/10/06 03:58:26;;;;;;;9.15;5.78;;;;;;;;;;4988770;28;20034;-71
2022/10/06 04:01:10;;;;;;;13.45;5.93;;;;;;;;;;4989188;28;20473;-70
2022/10/06 04:03:35;;;;;;;10.95;5.50;;;;;;;;;;4989281;28;20026;-70
2022/10/06 04:06:02;;;;;;;7.95;5.20;;;;;;;;;;4990750;28;20591;-70
2022/10/06 04:08:28;;;;;;;11.57;5.85;;;;;;;;;;4986532;28;20101;-70
2022/10/06 04:10:53;;;;;;;12.80;5.53;;;;;;;;;;4991482;28;20157;-69
2022/10/06 04:13:20;;;;;;;15.02;5.47;;;;;;;;;;4990239;28;20060;-69
2022/10/06 04:15:45;;;;;;;11.45;5.63;;;;;;;;;;4989365;28;20030;-70
2022/10/06 04:18:11;;;;;;;8.80;5.00;;;;;;;;;;4985069;28;20380;-70
2022/10/06 04:20:37;;;;;;;10.63;5.50;;;;;;;;;;4989620;28;20037;-70
2022/10/06 04:23:02;;;;;;;11.70;5.88;;;;;;;;;;4990808;28;20721;-70
2022/10/06 04:25:27;;;;;;;9.93;5.53;;;;;;;;;;4990807;28;20403;-69
2022/10/06 04:27:53;;;;;;;11.70;6.07;;;;;;;;;;4990991;28;20018;-70
2022/10/06 04:30:18;;;;;;;11.43;6.03;;;;;;;;;;4987074;28;20375;-70
2022/10/06 04:32:44;;;;;;;15.13;5.80;;;;;;;;;;4990681;28;20105;-70
2022/10/06 04:35:09;;;;;;;9.82;5.43;;;;;;;;;;4988738;28;20076;-70
2022/10/06 04:37:35;;;;;;;11.13;5.83;;;;;;;;;;4989330;28;20118;-70
2022/10/06 04:40:00;;;;;;;13.67;5.57;;;;;;;;;;4988799;28;20748;-70
2022/10/06 04:42:28;;;;;;;11.33;5.67;;;;;;;;;;4989915;28;20487;-70
2022/10/06 04:44:53;;;;;;;13.70;5.97;;;;;;;;;;4991958;28;20272;-70
2022/10/06 04:47:19;;;;;;;9.93;5.82;;;;;;;;;;4990851;28;20384;-70
2022/10/06 04:49:44;;;;;;;12.17;5.87;;;;;;;;;;4990051;28;20036;-70
2022/10/06 04:52:09;;;;;;;13.17;6.03;;;;;;;;;;4991502;28;20548;-69
2022/10/06 04:54:34;;;;;;;11.23;6.20;;;;;;;;;;5006082;28;20193;-70
2022/10/06 04:57:00;;;;;;;16.13;5.73;;;;;;;;;;4987445;28;20061;-70
2022/10/06 05:00:21;;;;;;;17.50;5.60;;;;;;;;;;4988811;28;20276;-69
2022/10/06 05:02:10;;;;;;;17.05;6.22;;;;;;;;;;4985709;28;20762;-70
2022/10/06 05:04:35;;;;;;;11.35;6.07;;;;;;;;;;4989062;28;20040;-70
2022/10/06 05:07:01;;;;;;;12.70;6.07;;;;;;;;;;4990199;28;20042;-70
2022/10/06 05:09:26;;;;;;;14.90;6.13;;;;;;;;;;4985929;28;20408;-69
2022/10/06 05:11:51;;;;;;;10.67;6.87;;;;;;;;;;4987488;28;20152;-69
2022/10/06 05:14:16;;;;;;;14.97;5.93;;;;;;;;;;5004635;28;20288;-67
2022/10/06 05:16:42;;;;;;;16.43;5.93;;;;;;;;;;4988267;28;20018;-67
2022/10/06 05:19:07;;;;;;;11.10;6.15;;;;;;;;;;4989479;28;20029;-69
2022/10/06 05:21:33;;;;;;;17.30;6.63;;;;;;;;;;4987614;28;20026;-69
2022/10/06 05:23:59;;;;;;;13.27;5.30;;;;;;;;;;4989958;28;20284;-71
2022/10/06 05:26:25;;;;;;;13.57;5.83;;;;;;;;;;4989869;28;20400;-70
2022/10/06 05:28:51;;;;;;;15.20;5.75;;;;;;;;;;4989874;28;20637;-67
2022/10/06 05:31:21;;;;;;;10.52;5.55;;;;;;;;;;4988255;28;20026;-70
2022/10/06 05:33:46;;;;;;;17.88;6.55;;;;;;;;;;4986678;28;20026;-70
2022/10/06 05:36:13;;;;;;;13.88;5.75;;;;;;;;;;4989830;28;20026;-71
2022/10/06 05:38:38;;;;;;;16.40;6.60;;;;;;;;;;4983102;28;20048;-71
2022/10/06 05:41:09;;;;;;;20.05;6.20;;;;;;;;;;4984473;28;20031;-71
2022/10/06 05:43:34;;;;;;;14.93;6.07;;;;;;;;;;4989578;28;20058;-71
2022/10/06 05:46:00;;;;;;;14.85;6.38;;;;;;;;;;4986126;28;20129;-72
2022/10/06 05:48:26;;;;;;;12.43;6.03;;;;;;;;;;4988406;28;20481;-71
2022/10/06 05:50:59;;;;;;;14.68;5.90;;;;;;;;;;4987525;28;20045;-73
2022/10/06 05:53:25;;;;;;;11.20;6.40;;;;;;;;;;4988345;28;20041;-73
2022/10/06 05:55:50;;;;;;;17.00;7.75;;;;;;;;;;4983926;28;20026;-72
2022/10/06 05:58:15;;;;;;;15.75;8.25;;;;;;;;;;4985543;28;20032;-73
2022/10/06 06:00:40;;;;;;;17.40;8.27;;;;;;;;;;4985542;28;20049;-73
2022/10/06 06:03:09;;;;;;;25.20;9.20;;;;;;;;;;4994142;28;20287;-71
2022/10/06 06:05:38;;;;;;;17.20;7.47;;;;;;;;;;4992666;28;20310;-73
2022/10/06 06:08:04;;;;;;;17.17;7.43;;;;;;;;;;4992782;28;20030;-73
2022/10/06 06:10:29;;;;;;;16.37;7.20;;;;;;;;;;4991722;28;20057;-72
2022/10/06 06:12:54;;;;;;;11.27;7.10;;;;;;;;;;4993161;28;20097;-73
2022/10/06 06:18:04;;;;;;;12.15;7.13;;;;;;;;;;4991713;28;20069;-73
2022/10/06 06:20:30;;;;;;;21.02;7.88;;;;;;;;;;4992770;28;20054;-67
2022/10/06 06:22:55;;;;;;;20.52;7.85;;;;;;;;;;4993431;28;20057;-67
2022/10/06 06:25:20;;;;;;;18.67;7.13;;;;;;;;;;4992964;28;20418;-66
2022/10/06 06:27:45;;;;;;;12.57;6.70;;;;;;;;;;4991715;28;20027;-67
2022/10/06 06:30:11;;;;;;;17.93;8.07;;;;;;;;;;4993563;28;20029;-68
2022/10/06 06:32:36;;;;;;;17.63;7.27;;;;;;;;;;4993724;28;20308;-67
2022/10/06 06:35:01;;;;;;;22.23;8.00;;;;;;;;;;4993047;28;20015;-67
2022/10/06 06:37:29;;;;;;;15.15;7.30;;;;;;;;;;4988786;28;20058;-68
2022/10/06 06:39:55;;;;;;;21.50;7.35;;;;;;;;;;4993009;28;20030;-68
2022/10/06 06:42:20;;;;;;;11.30;6.90;;;;;;;;;;4991876;28;20085;-67
2022/10/06 06:44:45;;;;;;;10.93;6.47;;;;;;;;;;4993078;28;20048;-68
2022/10/06 06:47:10;;;;;;;13.70;6.60;;;;;;;;;;5007576;28;20476;-67
2022/10/06 06:49:35;;;;;;;13.97;6.60;;;;;;;;;;4992166;28;20586;-68
2022/10/06 06:52:02;;;;;;;16.17;6.77;;;;;;;;;;4992842;28;20404;-67
2022/10/06 06:54:27;;;;;;;20.25;6.70;;;;;;;;;;4992359;28;20287;-67
2022/10/06 06:56:54;;;;;;;11.65;5.63;;;;;;;;;;4992687;28;20045;-68
2022/10/06 06:59:19;;;;;;;9.63;5.88;;;;;;;;;;4992554;28;20037;-67
2022/10/06 07:01:45;;;;;;;15.30;5.70;;;;;;;;;;4991565;28;20038;-68
2022/10/06 07:04:12;;;;;;;12.02;5.32;;;;;;;;;;4992609;28;20653;-67
2022/10/06 07:06:38;;;;;;;9.07;5.53;;;;;;;;;;4992193;28;20034;-67
2022/10/06 07:09:04;;;;;;;7.88;4.90;;;;;;;;;;4991509;28;20033;-66
2022/10/06 07:11:30;;;;;;;10.53;5.73;;;;;;;;;;4992727;28;20400;-67
2022/10/06 07:13:59;;;;;;;13.63;5.63;;;;;;;;;;4991232;28;20304;-71
2022/10/06 07:27:29;;;;;;;13.40;7.32;;;;;;;;;;4992339;28;20037;-73
2022/10/06 07:29:55;;;;;;;15.35;7.00;;;;;;;;;;4991530;28;20070;-73
2022/10/06 07:32:21;;;;;;;18.92;8.75;;;;;;;;;;4992077;28;20092;-72
2022/10/06 07:34:46;;;;;;;14.93;8.20;;;;;;;;;;4989592;28;20029;-73
2022/10/06 07:37:12;;;;;;;14.43;8.23;;;;;;;;;;4991470;28;20022;-73
2022/10/06 07:39:37;;;;;;;12.07;6.70;;;;;;;;;;4991115;28;20046;-73
2022/10/06 07:42:05;;;;;;;14.67;5.60;;;;;;;;;;4992270;28;20045;-73
2022/10/06 07:44:31;;;;;;;14.00;5.50;;;;;;;;;;4991450;28;20367;-74
2022/10/06 07:46:56;;;;;;;10.40;4.97;;;;;;;;;;4992829;28;20105;-73
2022/10/06 07:49:21;;;;;;;8.50;4.97;;;;;;;;;;4991270;28;20279;-72
2022/10/06 07:51:46;;;;;;;9.70;4.38;;;;;;;;;;4991924;28;20936;-73
2022/10/06 07:54:12;;;;;;;11.40;4.50;;;;;;;;;;4991516;28;20523;-73
2022/10/06 07:56:37;;;;;;;8.57;5.00;;;;;;;;;;4991017;28;20533;-73
2022/10/06 07:59:02;;;;;;;11.60;4.50;;;;;;;;;;4986804;28;21344;-73
2022/10/06 08:01:29;;;;;;;10.43;4.90;;;;;;;;;;4988796;28;20504;-72
2022/10/06 08:03:54;;;;;;;10.73;4.70;;;;;;;;;;4990654;28;20027;-71
2022/10/06 08:06:22;;;;;;;10.07;4.90;;;;;;;11.90;nan;101848.44;4990059;28;20494;-72
2022/10/06 08:08:48;;;;;;;16.25;5.65;;;;;;;;;;4984008;28;20038;-73
2022/10/06 08:11:14;;;;;;;7.82;4.78;;;;;;;;;;4989204;28;20060;-72
2022/10/06 08:13:41;;;;;;;10.45;5.13;;;;;;;;;;4989969;28;20051;-72
2022/10/06 08:16:11;;;;;;;8.57;4.75;;;;;;;;;;4988977;28;20030;-72
2022/10/06 08:18:37;;;;;;;10.00;4.85;;;;;;;;;;4989769;28;20386;-72
2022/10/06 08:21:13;;;;;;;9.80;5.38;;;;;;;;;;4991448;28;20022;-72
2022/10/06 08:23:39;;;;;;;8.30;5.07;;;;;;;;;;4990179;28;20030;-68
2022/10/06 08:26:04;;;;;;;8.05;5.15;;;;;;;;;;4992833;28;20056;-71
2022/10/06 08:28:31;;;;;;;13.88;6.28;;;;;;;;;;4989106;28;20022;-71
2022/10/06 08:30:56;;;;;;;9.52;5.60;;;;;;;;;;5003588;28;20073;-71
2022/10/06 08:33:21;;;;;;;12.55;5.80;;;;;;;;;;4991396;28;20042;-72
2022/10/06 08:35:47;;;;;;;6.50;4.87;;;;;;;;;;4987452;28;20058;-74
2022/10/06 08:38:13;;;;;;;10.63;4.50;;;;;;;;;;5005723;28;20326;-73
2022/10/06 08:40:40;;;;;;;11.10;4.93;;;;;;;;;;4990324;28;20030;-73
2022/10/06 08:43:13;;;;;;;8.55;4.72;;;;;;;;;;4989404;28;20033;-74
2022/10/06 08:45:41;;;;;;;10.48;4.75;;;;;;;;;;4990858;28;20022;-73
2022/10/06 08:48:28;;;;;;;8.77;4.53;;;;;;;;;;4990264;28;20053;-74
2022/10/06 08:50:57;;;;;;;9.52;4.43;;;;;;;;;;4988503;28;20479;-74
2022/10/06 08:53:45;;;;;;;6.07;4.72;;;;;;;;;;4990958;28;20484;-74
2022/10/06 08:56:18;;;;;;;10.77;4.78;;;;;;;;;;4991341;28;20036;-74
2022/10/06 08:58:54;;;;;;;8.52;4.95;;;;;;;;;;4991157;28;20042;-74
2022/10/06 09:01:22;;;;;;;7.95;4.82;;;;;;;;;;4989718;28;20030;-74
2022/10/06 09:03:51;;;;;;;10.52;4.95;;;;;;;;;;4991632;28;20472;-73
2022/10/06 09:06:36;;;;;;;10.25;4.47;;;;;;;;;;4989538;28;20038;-74
2022/10/06 09:09:25;;;;;;;6.57;4.60;;;;;;;;;;4990055;28;20022;-73
2022/10/06 09:11:50;;;;;;;7.03;4.68;;;;;;;;;;4984014;28;20034;-71
2022/10/06 09:14:19;;;;;;;7.83;4.80;;;;;;;;;;5006518;28;20056;-70
2022/10/06 09:16:47;;;;;;;10.23;5.53;;;;;;;;;;4987990;28;20066;-74
2022/10/06 09:19:20;;;;;;;6.95;4.60;;;;;;;;;;4991722;28;20027;-73
2022/10/06 09:21:48;;;;;;;6.72;4.70;;;;;;;;;;4989112;28;20026;-73
2022/10/06 09:24:33;;;;;;;8.27;4.60;;;;;;;;;;4989770;28;20081;-74
2022/10/06 09:26:59;;;;;;;8.63;4.20;;;;;;;;;;4986909;28;20046;-73
2022/10/06 09:29:26;;;;;;;7.18;4.50;;;;;;;;;;4988537;28;20038;-73
2022/10/06 09:31:52;;;;;;;9.00;4.63;;;;;;;;;;4990439;28;20057;-73
2022/10/06 09:34:20;;;;;;;6.83;4.43;;;;;;;;;;4990950;28;20061;-73
2022/10/06 09:37:06;;;;;;;6.88;4.72;;;;;;;;;;4994063;28;20105;-73
2022/10/06 09:39:36;;;;;;;5.85;4.47;;;;;;;;;;4986956;28;20069;-74
2022/10/06 09:42:03;;;;;;;8.50;4.38;;;;;;;;;;4994115;28;20034;-73
2022/10/06 09:44:30;;;;;;;7.07;4.20;;;;;;;;;;4994098;28;20026;-73
2022/10/06 09:46:56;;;;;;;7.93;4.20;;;;;;;;;;4993849;28;20023;-72
2022/10/06 09:49:30;;;;;;;11.00;4.32;;;;;;;;;;5009033;28;20038;-73
2022/10/06 09:52:01;;;;;;;6.18;3.80;;;;;;;;;;4992023;28;20387;-67
2022/10/06 09:54:30;;;;;;;8.38;3.90;;;;;;;;;;4993390;28;20052;-69
2022/10/06 09:56:57;;;;;;;7.25;4.03;;;;;;;;;;4993055;28;20547;-68
2022/10/06 09:59:28;;;;;;;7.00;4.30;;;;;;;;;;5007422;28;20034;-67
2022/10/06 10:01:55;;;;;;;6.03;3.63;;;;;;;16.42;nan;101822.13;4991930;28;20489;-62
2022/10/06 10:04:29;;;;;;;9.95;3.88;;;;;;;;;;5007022;28;20042;-66
2022/10/06 10:07:12;;;;;;;5.43;3.50;;;;;;;;;;4990539;28;20026;-67
2022/10/06 10:09:37;;;;;;;4.45;3.60;;;;;;;;;;4997628;28;20388;-66
2022/10/06 10:12:26;;;;;;;7.13;3.13;;;;;;;;;;4990708;28;20026;-71
2022/10/06 10:15:02;;;;;;;8.77;3.80;;;;;;;;;;4989206;28;20050;-71
2022/10/06 10:17:28;;;;;;;5.15;3.58;;;;;;;;;;5003441;28;20416;-73
2022/10/06 10:19:53;;;;;;;6.27;3.90;;;;;;;;;;4992999;28;20026;-72
2022/10/06 10:22:22;;;;;;;5.53;3.60;;;;;;;;;;4988921;28;20368;-71
2022/10/06 10:25:06;;;;;;;4.10;3.00;;;;;;;;;;4993146;28;20076;-72
2022/10/06 10:27:51;;;;;;;5.45;3.30;;;;;;;;;;4992909;28;20046;-70
2022/10/06 10:30:16;;;;;;;6.07;3.25;;;;;;;;;;4990718;28;20026;-70
2022/10/06 10:33:00;;;;;;;7.47;3.47;;;;;;;;;;4991322;28;20030;-70
2022/10/06 10:35:30;;;;;;;5.35;3.50;;;;;;;;;;4988618;28;20510;-70
2022/10/06 10:37:59;;;;;;;10.93;4.10;;;;;;;;;;4990561;28;20101;-72
2022/10/06 10:40:39;;;;;;;6.13;3.83;;;;;;;;;;4991301;28;20034;-70
2022/10/06 10:43:23;;;;;;;4.50;3.40;;;;;;;;;;4993479;28;20030;-70
2022/10/06 10:45:51;;;;;;;6.35;3.58;;;;;;;;;;4991263;28;20023;-73
2022/10/06 10:48:36;;;;;;;4.13;2.97;;;;;;;;;;4988558;28;20062;-72
2022/10/06 10:51:40;;;;;;;4.65;3.35;;;;;;;;;;4982157;28;20033;-67
2022/10/06 10:54:14;;;;;;;6.43;3.28;;;;;;;;;;4947812;28;20438;-73
2022/10/06 10:56:48;;;;;;;5.03;3.40;;;;;;;;;;4949981;28;20150;-66
2022/10/06 10:59:20;;;;;;;4.25;3.17;;;;;;;;;;4945413;28;20031;-66
2022/10/06 11:01:45;;;;;;;5.82;3.13;;;;;;;;;;4945394;28;20158;-68
2022/10/06 11:04:11;;;;;;;5.03;2.60;;;;;;;;;;4932927;29;20851;-68
2022/10/06 11:06:53;;;;;;;4.22;2.67;;;;;;;;;;4949243;28;20043;-73
2022/10/06 11:09:22;;;;;;;4.70;2.55;;;;;;;;;;4943629;28;20791;-73
2022/10/06 11:12:05;;;;;;;5.28;3.15;;;;;;;;;;4948311;28;20055;-72
2022/10/06 11:14:40;;;;;;;3.30;2.40;;;;;;;;;;4948163;28;20047;-72
2022/10/06 11:17:25;;;;;;;3.25;2.03;;;;;;;;;;4949523;28;20027;-73
2022/10/06 11:19:52;;;;;;;4.20;2.08;;;;;;;;;;4946225;28;20031;-71
2022/10/06 11:22:36;;;;;;;4.38;2.17;;;;;;;;;;4949482;28;20493;-71
2022/10/06 11:25:04;;;;;;;4.95;2.30;;;;;;;;;;4964523;28;21128;-73
2022/10/06 11:27:30;;;;;;;4.57;2.38;;;;;;;;;;5005993;28;20018;-72
2022/10/06 11:29:55;;;;;;;3.50;2.20;;;;;;;;;;5007818;28;20022;-72
2022/10/06 11:32:20;;;;;;;5.53;2.35;;;;;;;;;;4991168;28;20034;-67
2022/10/06 11:34:49;;;;;;;6.77;2.40;;;;;;;;;;4991817;28;20472;-67
2022/10/06 11:37:25;;;;;;;4.38;3.25;;;;;;;17.95;nan;101724.16;4991623;28;20548;-71
2022/10/06 11:39:50;;;;;;;5.03;2.85;;;;;;;;;;4992659;28;20031;-72
2022/10/06 11:42:15;;;;;;;5.28;2.63;;;;;;;;;;5007337;28;20108;-71
2022/10/06 11:44:46;;;;;;;5.50;2.80;;;;;;;;;;4990819;28;20042;-71
2022/10/06 11:47:16;;;;;;;3.70;2.80;;;;;;;;;;4991559;28;20066;-71
2022/10/06 11:49:44;;;;;;;10.05;3.35;;;;;;;;;;4990111;28;20026;-71
2022/10/06 11:52:09;;;;;;;5.85;2.60;;;;;;;;;;4990011;28;20038;-72
2022/10/06 11:54:47;;;;;;;5.00;2.70;;;;;;;;;;4989961;28;20033;-71
2022/10/06 11:57:21;;;;;;;5.20;2.92;;;;;;;;;;4987878;28;20022;-71
2022/10/06 11:59:48;;;;;;;6.05;2.78;;;;;;;;;;4989063;28;20038;-71
2022/10/06 12:02:31;;;;;;;5.55;2.80;;;;;;;;;;5004275;28;20033;-71
2022/10/06 12:05:09;;;;;;;6.00;2.58;;;;;;;;;;4990015;28;20022;-72
2022/10/06 12:07:53;;;;;;;6.63;2.53;;;;;;;18.45;nan;101722.53;5004004;28;20104;-71
2022/10/06 12:10:27;;;;;;;6.07;2.80;;;;;;;18.48;nan;101709.53;4988450;28;20085;-72
2022/10/06 12:13:14;;;;;;;5.78;2.30;;;;;;;18.54;nan;101729.06;4981668;28;20040;-72
2022/10/06 12:16:01;;;;;;;4.07;2.40;;;;;;;18.52;nan;101733.81;4988834;28;20570;-71
2022/10/06 12:18:37;;;;;;;5.88;2.38;;;;;;;18.61;nan;101726.22;4991789;28;20028;-72
2022/10/06 12:21:13;;;;;;;4.30;2.45;;;;;;;18.66;nan;101720.94;4990422;28;20026;-72
2022/10/06 12:23:57;;;;;;;6.50;2.65;;;;;;;18.67;nan;101725.22;4987541;28;20104;-72
2022/10/06 12:26:34;;;;;;;3.95;2.75;;;;;;;18.70;nan;101714.06;4999000;28;20415;-73
2022/10/06 12:29:18;;;;;;;8.95;3.17;;;;;;;;;;4986886;28;20085;-72
2022/10/06 12:32:04;;;;;;;5.30;2.55;;;;;;;18.76;nan;101728.28;4984913;28;20460;-72
2022/10/06 12:34:38;;;;;;;7.97;2.55;;;;;;;18.76;nan;101734.44;4989034;28;20038;-72
2022/10/06 12:37:28;;;;;;;3.08;2.22;;;;;;;18.81;nan;101713.16;5002703;28;20034;-72
2022/10/06 12:40:43;;;;;;;3.05;2.13;;;;;;;18.83;nan;101732.41;4985894;28;20022;-71
2022/10/06 12:43:11;;;;;;;5.38;2.10;;;;;;;18.85;nan;101716.97;4983981;28;20038;-72
2022/10/06 12:45:41;;;;;;;5.20;2.10;;;;;;;18.89;nan;101733.28;4982944;28;20058;-72
2022/10/06 12:48:15;;;;;;;3.25;1.85;;;;;;;18.90;nan;101714.34;4989410;28;20531;-72
2022/10/06 12:50:43;;;;;;;3.45;1.50;;;;;;;18.91;nan;101748.00;4991281;28;20498;-72
2022/10/06 12:53:21;;;;;;;2.28;1.60;;;;;;;18.87;nan;101650.00;5005621;28;20026;-72
2022/10/06 12:55:51;;;;;;;6.38;2.00;;;;;;;18.98;nan;101720.31;4986554;28;20057;-72
2022/10/06 12:58:17;;;;;;;4.15;1.85;;;;;;;19.01;nan;101715.28;4988108;28;20029;-70
2022/10/06 13:00:43;;;;;;;5.68;1.90;;;;;;;19.00;nan;101707.53;5003793;28;20034;-73
2022/10/06 13:03:16;;;;;;;3.72;1.90;;;;;;;;;;4989167;28;20432;-71
2022/10/06 13:05:49;;;;;;;4.82;1.88;;;;;;;19.08;nan;101723.91;4989472;28;20105;-72
2022/10/06 13:08:24;;;;;;;2.45;1.88;;;;;;;19.12;nan;101700.97;4988914;28;20030;-72
2022/10/06 13:10:50;;;;;;;4.05;2.20;;;;;;;19.17;nan;101707.44;4990333;28;20030;-71
2022/10/06 13:13:23;;;;;;;4.38;2.00;;;;;;;19.19;nan;101780.91;5001220;28;20052;-71
2022/10/06 13:15:48;;;;;;;3.75;2.17;;;;;;;;;;4992970;28;20034;-71
2022/10/06 13:18:15;;;;;;;3.80;2.60;;;;;;;;;;4985076;28;21246;-71
2022/10/06 13:20:51;;;;;;;4.97;2.13;;;;;;;19.33;nan;101690.53;4988625;28;20034;-70
2022/10/06 13:23:36;;;;;;;5.97;2.90;;;;;;;19.44;nan;101686.91;4988342;28;20030;-70
2022/10/06 13:26:01;;;;;;;4.53;2.30;;;;;;;19.38;nan;101682.56;4986369;28;20026;-71
2022/10/06 13:28:33;;;;;;;3.90;2.00;;;;;;;19.30;nan;101704.41;4985202;28;20038;-70
2022/10/06 13:31:22;;;;;;;4.10;2.22;;;;;;;19.41;nan;101683.91;4983680;28;20369;-72
2022/10/06 13:34:01;;;;;;;6.20;2.40;;;;;;;19.46;nan;101730.19;4951328;28;20031;-71
2022/10/06 13:36:28;;;;;;;8.55;2.63;;;;;;;19.44;nan;101688.75;4988531;28;20030;-71
2022/10/06 13:38:54;;;;;;;5.03;2.10;;;;;;;19.34;nan;101628.81;4990177;28;20049;-71
2022/10/06 13:41:25;;;;;;;4.03;1.80;;;;;;;19.50;nan;101677.06;4988874;28;20031;-72
2022/10/06 13:44:13;;;;;;;3.78;2.10;;;;;;;19.51;nan;101690.19;4988510;28;20030;-71
2022/10/06 13:46:41;;;;;;;7.45;2.63;;;;;;;19.51;nan;101681.34;4987476;28;20034;-71
2022/10/06 13:49:19;;;;;;;4.00;2.10;;;;;;;19.50;nan;101680.53;4988582;28;20080;-71
2022/10/06 13:51:51;;;;;;;4.32;1.95;;;;;;;19.46;nan;101691.97;4999273;28;20121;-71
2022/10/06 13:54:32;;;;;;;2.70;1.70;;;;;;;19.43;nan;101703.19;5002601;28;20038;-71
2022/10/06 13:56:58;;;;;;;3.00;1.92;;;;;;;19.41;nan;101655.34;4989001;28;20018;-71
2022/10/06 13:59:31;;;;;;;3.28;2.10;;;;;;;19.36;nan;101667.84;4990284;28;20460;-71
2022/10/06 14:02:01;;;;;;;4.05;1.73;;;;;;;19.30;nan;101673.16;4987193;28;20093;-71
2022/10/06 14:04:26;;;;;;;6.35;2.45;;;;;;;19.25;nan;101737.19;4989306;28;20018;-70
2022/10/06 14:06:59;;;;;;;3.25;2.13;;;;;;;19.26;nan;101733.44;4986117;28;20049;-70
2022/10/06 14:09:27;;;;;;;2.95;1.85;;;;;;;;;;4986084;28;20034;-71
2022/10/06 14:12:01;;;;;;;5.88;2.25;;;;;;;19.29;nan;101676.06;5003152;28;20104;-71
2022/10/06 14:14:27;;;;;;;2.97;2.35;;;;;;;;;;4987312;28;20049;-70
2022/10/06 14:16:53;;;;;;;4.55;2.00;;;;;;;19.32;nan;101673.72;4985383;28;20022;-71
2022/10/06 14:19:41;;;;;;;7.43;4.78;;;;;;;19.31;nan;101661.38;4988678;28;20018;-71
2022/10/06 14:22:29;;;;;;;3.45;2.10;;;;;;;19.24;nan;101665.34;4987235;28;20105;-71
2022/10/06 14:24:54;;;;;;;4.68;2.22;;;;;;;;;;4991963;28;20030;-71
2022/10/06 14:27:20;;;;;;;5.13;2.25;;;;;;;19.22;nan;101638.88;5008193;28;20022;-71
2022/10/06 14:29:45;;;;;;;6.32;3.63;;;;;;;;;;4991066;28;20049;-70